sensor_id;sensor_type;location;lat;lon;timestamp;pressure;altitude;pressure_sealevel;temperature;humidity
34081;BME280;20358;50.272;19.026;2022-07-11T00:01:38;98431.53;;;13.71;68.09
34081;BME280;20358;50.272;19.026;2022-07-11T00:04:45;98434.38;;;13.68;68.26
34081;BME280;20358;50.272;19.026;2022-07-11T00:07:54;98429.50;;;13.62;68.76
34081;BME280;20358;50.272;19.026;2022-07-11T00:11:02;98430.84;;;13.55;68.72
34081;BME280;20358;50.272;19.026;2022-07-11T00:14:08;98430.31;;;13.50;68.73
34081;BME280;20358;50.272;19.026;2022-07-11T00:17:15;98428.84;;;13.46;68.91
34081;BME280;20358;50.272;19.026;2022-07-11T00:20:20;98435.97;;;13.44;69.08
34081;BME280;20358;50.272;19.026;2022-07-11T00:23:29;98434.50;;;13.40;69.31
34081;BME280;20358;50.272;19.026;2022-07-11T00:26:35;98435.72;;;13.34;69.91
34081;BME280;20358;50.272;19.026;2022-07-11T00:29:42;98429.06;;;13.29;69.98
34081;BME280;20358;50.272;19.026;2022-07-11T00:32:48;98432.84;;;13.25;70.37
34081;BME280;20358;50.272;19.026;2022-07-11T00:35:55;98428.53;;;13.24;70.39
34081;BME280;20358;50.272;19.026;2022-07-11T00:39:05;98432.09;;;13.23;70.42
34081;BME280;20358;50.272;19.026;2022-07-11T00:42:16;98424.09;;;13.24;70.58
34081;BME280;20358;50.272;19.026;2022-07-11T00:45:22;98421.38;;;13.26;70.45
34081;BME280;20358;50.272;19.026;2022-07-11T00:48:28;98432.09;;;13.23;70.62
34081;BME280;20358;50.272;19.026;2022-07-11T00:51:34;98435.88;;;13.19;71.05
34081;BME280;20358;50.272;19.026;2022-07-11T00:54:45;98429.84;;;13.17;70.94
34081;BME280;20358;50.272;19.026;2022-07-11T00:57:51;98429.66;;;13.20;70.92
34081;BME280;20358;50.272;19.026;2022-07-11T01:00:58;98419.88;;;13.22;70.88
34081;BME280;20358;50.272;19.026;2022-07-11T01:04:05;98429.81;;;13.31;70.46
34081;BME280;20358;50.272;19.026;2022-07-11T01:07:11;98435.53;;;13.37;70.32
34081;BME280;20358;50.272;19.026;2022-07-11T01:10:20;98427.63;;;13.37;70.25
34081;BME280;20358;50.272;19.026;2022-07-11T01:13:26;98426.59;;;13.40;70.15
34081;BME280;20358;50.272;19.026;2022-07-11T01:16:32;98419.63;;;13.39;70.25
34081;BME280;20358;50.272;19.026;2022-07-11T01:19:39;98426.69;;;13.38;70.42
34081;BME280;20358;50.272;19.026;2022-07-11T01:22:47;98431.13;;;13.38;70.52
34081;BME280;20358;50.272;19.026;2022-07-11T01:25:56;98429.41;;;13.37;70.53
34081;BME280;20358;50.272;19.026;2022-07-11T01:29:06;98433.34;;;13.44;70.37
34081;BME280;20358;50.272;19.026;2022-07-11T01:32:13;98420.16;;;13.44;70.08
34081;BME280;20358;50.272;19.026;2022-07-11T01:35:18;98426.75;;;13.51;69.92
34081;BME280;20358;50.272;19.026;2022-07-11T01:38:24;98420.50;;;13.52;69.86
34081;BME280;20358;50.272;19.026;2022-07-11T01:41:33;98419.59;;;13.53;69.92
34081;BME280;20358;50.272;19.026;2022-07-11T01:44:39;98415.06;;;13.55;69.64
34081;BME280;20358;50.272;19.026;2022-07-11T01:47:45;98411.50;;;13.56;69.45
34081;BME280;20358;50.272;19.026;2022-07-11T01:50:51;98420.13;;;13.58;69.47
34081;BME280;20358;50.272;19.026;2022-07-11T01:53:57;98410.72;;;13.54;69.46
34081;BME280;20358;50.272;19.026;2022-07-11T01:57:07;98411.88;;;13.50;69.95
34081;BME280;20358;50.272;19.026;2022-07-11T02:00:14;98407.16;;;13.55;69.76
34081;BME280;20358;50.272;19.026;2022-07-11T02:03:20;98391.56;;;13.52;70.21
34081;BME280;20358;50.272;19.026;2022-07-11T02:06:26;98404.19;;;13.47;70.25
34081;BME280;20358;50.272;19.026;2022-07-11T02:09:32;98404.38;;;13.44;70.54
34081;BME280;20358;50.272;19.026;2022-07-11T02:12:41;98394.66;;;13.32;71.22
34081;BME280;20358;50.272;19.026;2022-07-11T02:15:47;98404.81;;;13.38;71.37
34081;BME280;20358;50.272;19.026;2022-07-11T02:18:53;98414.56;;;13.36;71.13
34081;BME280;20358;50.272;19.026;2022-07-11T02:22:00;98398.03;;;13.34;71.07
34081;BME280;20358;50.272;19.026;2022-07-11T02:25:08;98407.72;;;13.33;71.27
34081;BME280;20358;50.272;19.026;2022-07-11T02:28:18;98414.88;;;13.31;71.42
34081;BME280;20358;50.272;19.026;2022-07-11T02:31:23;98410.44;;;13.32;71.16
34081;BME280;20358;50.272;19.026;2022-07-11T02:34:30;98411.31;;;13.32;71.22
34081;BME280;20358;50.272;19.026;2022-07-11T02:37:35;98411.59;;;13.28;71.63
34081;BME280;20358;50.272;19.026;2022-07-11T02:40:42;98400.72;;;13.20;72.27
34081;BME280;20358;50.272;19.026;2022-07-11T02:43:52;98413.97;;;13.18;72.20
34081;BME280;20358;50.272;19.026;2022-07-11T02:46:58;98404.47;;;13.16;72.22
34081;BME280;20358;50.272;19.026;2022-07-11T02:50:07;98410.34;;;13.07;72.85
34081;BME280;20358;50.272;19.026;2022-07-11T02:53:14;98406.97;;;13.05;73.20
34081;BME280;20358;50.272;19.026;2022-07-11T02:56:19;98421.06;;;13.04;73.12
34081;BME280;20358;50.272;19.026;2022-07-11T02:59:29;98414.88;;;13.05;73.04
34081;BME280;20358;50.272;19.026;2022-07-11T03:02:48;98420.69;;;13.10;73.09
34081;BME280;20358;50.272;19.026;2022-07-11T03:05:54;98409.94;;;13.13;73.32
34081;BME280;20358;50.272;19.026;2022-07-11T03:09:00;98418.38;;;13.18;72.84
34081;BME280;20358;50.272;19.026;2022-07-11T03:12:08;98423.06;;;13.27;72.90
34081;BME280;20358;50.272;19.026;2022-07-11T03:15:16;98425.38;;;13.31;72.64
34081;BME280;20358;50.272;19.026;2022-07-11T03:18:24;98427.94;;;13.33;73.30
34081;BME280;20358;50.272;19.026;2022-07-11T03:21:29;98421.81;;;13.32;73.43
34081;BME280;20358;50.272;19.026;2022-07-11T03:24:36;98424.00;;;13.26;73.90
34081;BME280;20358;50.272;19.026;2022-07-11T03:27:43;98431.69;;;13.29;74.13
34081;BME280;20358;50.272;19.026;2022-07-11T03:30:52;98426.25;;;13.32;74.33
34081;BME280;20358;50.272;19.026;2022-07-11T03:33:58;98431.13;;;13.38;74.11
34081;BME280;20358;50.272;19.026;2022-07-11T03:37:05;98425.66;;;13.41;73.90
34081;BME280;20358;50.272;19.026;2022-07-11T03:40:12;98429.66;;;13.46;74.01
34081;BME280;20358;50.272;19.026;2022-07-11T03:43:18;98433.47;;;13.55;73.87
34081;BME280;20358;50.272;19.026;2022-07-11T03:46:29;98429.16;;;13.54;73.90
34081;BME280;20358;50.272;19.026;2022-07-11T03:49:36;98430.97;;;13.54;73.86
34081;BME280;20358;50.272;19.026;2022-07-11T03:52:42;98430.78;;;13.57;74.05
34081;BME280;20358;50.272;19.026;2022-07-11T03:55:48;98437.94;;;13.67;73.56
34081;BME280;20358;50.272;19.026;2022-07-11T03:58:54;98433.13;;;13.74;73.49
34081;BME280;20358;50.272;19.026;2022-07-11T04:02:03;98432.63;;;13.81;73.33
34081;BME280;20358;50.272;19.026;2022-07-11T04:05:09;98430.91;;;13.80;73.30
34081;BME280;20358;50.272;19.026;2022-07-11T04:08:15;98437.56;;;13.86;73.12
34081;BME280;20358;50.272;19.026;2022-07-11T04:11:21;98437.06;;;13.93;72.70
34081;BME280;20358;50.272;19.026;2022-07-11T04:14:27;98438.63;;;13.96;72.54
34081;BME280;20358;50.272;19.026;2022-07-11T04:17:36;98432.22;;;14.00;72.63
34081;BME280;20358;50.272;19.026;2022-07-11T04:20:42;98438.34;;;14.00;72.64
34081;BME280;20358;50.272;19.026;2022-07-11T04:23:48;98432.59;;;14.08;72.49
34081;BME280;20358;50.272;19.026;2022-07-11T04:26:54;98422.06;;;14.21;71.96
34081;BME280;20358;50.272;19.026;2022-07-11T04:30:03;98433.00;;;14.15;71.76
34081;BME280;20358;50.272;19.026;2022-07-11T04:33:12;98422.28;;;14.18;71.97
34081;BME280;20358;50.272;19.026;2022-07-11T04:36:18;98431.34;;;14.26;72.04
34081;BME280;20358;50.272;19.026;2022-07-11T04:39:25;98431.56;;;14.36;71.65
34081;BME280;20358;50.272;19.026;2022-07-11T04:42:30;98441.03;;;14.26;71.36
34081;BME280;20358;50.272;19.026;2022-07-11T04:45:38;98443.16;;;14.21;71.90
34081;BME280;20358;50.272;19.026;2022-07-11T04:48:46;98439.34;;;14.25;71.76
34081;BME280;20358;50.272;19.026;2022-07-11T04:51:52;98439.34;;;14.25;71.53
34081;BME280;20358;50.272;19.026;2022-07-11T04:55:04;98450.72;;;14.13;71.71
34081;BME280;20358;50.272;19.026;2022-07-11T04:58:11;98451.22;;;14.05;72.01
34081;BME280;20358;50.272;19.026;2022-07-11T05:01:16;98450.72;;;14.13;72.19
34081;BME280;20358;50.272;19.026;2022-07-11T05:04:26;98457.06;;;14.23;71.83
34081;BME280;20358;50.272;19.026;2022-07-11T05:07:31;98444.00;;;14.21;71.66
34081;BME280;20358;50.272;19.026;2022-07-11T05:10:38;98458.22;;;14.31;71.58
34081;BME280;20358;50.272;19.026;2022-07-11T05:13:44;98456.13;;;14.36;71.30
34081;BME280;20358;50.272;19.026;2022-07-11T05:16:50;98459.69;;;14.48;71.08
34081;BME280;20358;50.272;19.026;2022-07-11T05:19:59;98450.53;;;14.53;70.94
34081;BME280;20358;50.272;19.026;2022-07-11T05:23:05;98466.03;;;14.58;70.92
34081;BME280;20358;50.272;19.026;2022-07-11T05:26:11;98462.03;;;14.65;70.34
34081;BME280;20358;50.272;19.026;2022-07-11T05:29:19;98462.44;;;14.59;70.56
34081;BME280;20358;50.272;19.026;2022-07-11T05:32:25;98454.09;;;14.40;70.49
34081;BME280;20358;50.272;19.026;2022-07-11T05:35:41;98458.84;;;14.35;71.02
34081;BME280;20358;50.272;19.026;2022-07-11T05:38:46;98455.16;;;14.37;71.00
34081;BME280;20358;50.272;19.026;2022-07-11T05:41:53;98463.31;;;14.47;70.78
34081;BME280;20358;50.272;19.026;2022-07-11T05:44:58;98463.63;;;14.55;70.74
34081;BME280;20358;50.272;19.026;2022-07-11T05:48:05;98463.19;;;14.61;70.21
34081;BME280;20358;50.272;19.026;2022-07-11T05:51:14;98469.31;;;14.61;69.98
34081;BME280;20358;50.272;19.026;2022-07-11T05:54:22;98473.44;;;14.65;69.89
34081;BME280;20358;50.272;19.026;2022-07-11T05:57:27;98469.72;;;14.55;69.51
34081;BME280;20358;50.272;19.026;2022-07-11T06:00:34;98469.94;;;14.65;70.07
34081;BME280;20358;50.272;19.026;2022-07-11T06:03:48;98464.13;;;14.85;70.01
34081;BME280;20358;50.272;19.026;2022-07-11T06:06:54;98458.09;;;14.96;68.56
34081;BME280;20358;50.272;19.026;2022-07-11T06:10:00;98475.91;;;14.92;66.95
34081;BME280;20358;50.272;19.026;2022-07-11T06:13:08;98463.56;;;14.93;67.29
34081;BME280;20358;50.272;19.026;2022-07-11T06:16:13;98455.31;;;14.97;66.75
34081;BME280;20358;50.272;19.026;2022-07-11T06:19:23;98463.13;;;15.11;65.79
34081;BME280;20358;50.272;19.026;2022-07-11T06:22:28;98461.03;;;15.16;65.55
34081;BME280;20358;50.272;19.026;2022-07-11T06:25:35;98463.25;;;15.22;65.03
34081;BME280;20358;50.272;19.026;2022-07-11T06:28:41;98471.53;;;15.29;65.15
34081;BME280;20358;50.272;19.026;2022-07-11T06:31:47;98466.03;;;15.32;64.42
34081;BME280;20358;50.272;19.026;2022-07-11T06:34:57;98454.09;;;15.39;64.14
34081;BME280;20358;50.272;19.026;2022-07-11T06:38:05;98457.09;;;15.58;63.65
34081;BME280;20358;50.272;19.026;2022-07-11T06:41:10;98466.00;;;15.68;63.16
34081;BME280;20358;50.272;19.026;2022-07-11T06:44:17;98467.38;;;15.74;62.01
34081;BME280;20358;50.272;19.026;2022-07-11T06:47:28;98475.28;;;15.74;61.93
34081;BME280;20358;50.272;19.026;2022-07-11T06:50:39;98462.44;;;15.69;61.90
34081;BME280;20358;50.272;19.026;2022-07-11T06:53:45;98469.28;;;15.72;62.38
34081;BME280;20358;50.272;19.026;2022-07-11T06:56:51;98465.00;;;15.82;61.98
34081;BME280;20358;50.272;19.026;2022-07-11T06:59:57;98482.06;;;15.89;61.36
34081;BME280;20358;50.272;19.026;2022-07-11T07:03:05;98462.50;;;15.91;60.55
34081;BME280;20358;50.272;19.026;2022-07-11T07:06:24;98479.09;;;15.93;60.60
34081;BME280;20358;50.272;19.026;2022-07-11T07:09:31;98475.88;;;16.01;60.85
34081;BME280;20358;50.272;19.026;2022-07-11T07:12:47;98469.72;;;16.24;59.95
34081;BME280;20358;50.272;19.026;2022-07-11T07:15:56;98462.81;;;16.56;59.49
34081;BME280;20358;50.272;19.026;2022-07-11T07:19:04;98454.78;;;16.80;58.81
34081;BME280;20358;50.272;19.026;2022-07-11T07:22:14;98491.00;;;16.91;56.64
34081;BME280;20358;50.272;19.026;2022-07-11T07:25:20;98473.41;;;16.79;57.37
34081;BME280;20358;50.272;19.026;2022-07-11T07:28:26;98474.41;;;16.78;57.34
34081;BME280;20358;50.272;19.026;2022-07-11T07:31:33;98469.81;;;16.69;55.57
34081;BME280;20358;50.272;19.026;2022-07-11T07:34:40;98463.56;;;16.70;54.07
34081;BME280;20358;50.272;19.026;2022-07-11T07:37:48;98468.38;;;16.76;53.88
34081;BME280;20358;50.272;19.026;2022-07-11T07:40:55;98464.28;;;16.83;54.55
34081;BME280;20358;50.272;19.026;2022-07-11T07:44:00;98462.81;;;16.79;53.74
34081;BME280;20358;50.272;19.026;2022-07-11T07:47:08;98478.47;;;16.82;53.87
34081;BME280;20358;50.272;19.026;2022-07-11T07:50:14;98494.94;;;16.74;53.99
34081;BME280;20358;50.272;19.026;2022-07-11T07:53:23;98477.50;;;16.72;55.31
34081;BME280;20358;50.272;19.026;2022-07-11T07:56:28;98480.63;;;16.66;55.07
34081;BME280;20358;50.272;19.026;2022-07-11T07:59:35;98474.16;;;16.70;55.34
34081;BME280;20358;50.272;19.026;2022-07-11T08:02:41;98468.84;;;16.70;55.14
34081;BME280;20358;50.272;19.026;2022-07-11T08:05:45;98466.28;;;16.46;54.22
34081;BME280;20358;50.272;19.026;2022-07-11T08:08:53;98457.66;;;16.44;54.91
34081;BME280;20358;50.272;19.026;2022-07-11T08:12:00;98453.56;;;16.62;54.54
34081;BME280;20358;50.272;19.026;2022-07-11T08:15:07;98438.16;;;16.89;54.28
34081;BME280;20358;50.272;19.026;2022-07-11T08:18:14;98447.47;;;17.17;52.63
34081;BME280;20358;50.272;19.026;2022-07-11T08:21:19;98434.69;;;17.22;53.21
34081;BME280;20358;50.272;19.026;2022-07-11T08:24:29;98446.09;;;17.23;53.06
34081;BME280;20358;50.272;19.026;2022-07-11T08:27:35;98431.78;;;17.03;54.75
34081;BME280;20358;50.272;19.026;2022-07-11T08:30:43;98436.59;;;16.87;55.50
34081;BME280;20358;50.272;19.026;2022-07-11T08:33:48;98439.84;;;16.68;55.24
34081;BME280;20358;50.272;19.026;2022-07-11T08:36:55;98421.69;;;16.52;55.11
34081;BME280;20358;50.272;19.026;2022-07-11T08:40:06;98419.88;;;16.53;55.73
34081;BME280;20358;50.272;19.026;2022-07-11T08:43:14;98419.41;;;16.81;55.27
34081;BME280;20358;50.272;19.026;2022-07-11T08:46:20;98414.59;;;17.20;55.38
34081;BME280;20358;50.272;19.026;2022-07-11T08:49:28;98402.44;;;17.60;52.97
34081;BME280;20358;50.272;19.026;2022-07-11T08:52:33;98398.41;;;17.76;52.69
34081;BME280;20358;50.272;19.026;2022-07-11T08:55:43;98400.91;;;17.78;50.67
34081;BME280;20358;50.272;19.026;2022-07-11T08:58:49;98403.38;;;17.59;51.38
34081;BME280;20358;50.272;19.026;2022-07-11T09:02:01;98408.75;;;17.48;50.39
34081;BME280;20358;50.272;19.026;2022-07-11T09:05:09;98399.25;;;17.45;51.37
34081;BME280;20358;50.272;19.026;2022-07-11T09:08:15;98407.22;;;17.34;51.13
34081;BME280;20358;50.272;19.026;2022-07-11T09:11:23;98413.22;;;17.36;51.78
34081;BME280;20358;50.272;19.026;2022-07-11T09:14:32;98410.59;;;17.25;51.12
34081;BME280;20358;50.272;19.026;2022-07-11T09:17:38;98410.25;;;17.30;52.06
34081;BME280;20358;50.272;19.026;2022-07-11T09:20:52;98401.38;;;17.51;50.53
34081;BME280;20358;50.272;19.026;2022-07-11T09:24:13;98399.16;;;17.67;48.25
34081;BME280;20358;50.272;19.026;2022-07-11T09:27:43;98404.25;;;17.80;48.10
34081;BME280;20358;50.272;19.026;2022-07-11T09:30:50;98387.50;;;17.79;49.37
34081;BME280;20358;50.272;19.026;2022-07-11T09:33:58;98409.31;;;17.83;48.52
34081;BME280;20358;50.272;19.026;2022-07-11T09:37:04;98380.91;;;18.06;49.41
34081;BME280;20358;50.272;19.026;2022-07-11T09:40:11;98387.22;;;18.35;48.63
34081;BME280;20358;50.272;19.026;2022-07-11T09:43:26;98397.97;;;18.33;48.53
34081;BME280;20358;50.272;19.026;2022-07-11T09:46:33;98386.13;;;18.17;48.02
34081;BME280;20358;50.272;19.026;2022-07-11T09:49:40;98394.44;;;18.03;47.81
34081;BME280;20358;50.272;19.026;2022-07-11T09:53:02;98397.81;;;17.94;48.07
34081;BME280;20358;50.272;19.026;2022-07-11T09:56:08;98400.72;;;17.91;48.24
34081;BME280;20358;50.272;19.026;2022-07-11T09:59:37;98404.22;;;17.91;49.31
34081;BME280;20358;50.272;19.026;2022-07-11T10:02:46;98423.81;;;17.79;48.38
34081;BME280;20358;50.272;19.026;2022-07-11T10:05:53;98494.78;;;17.64;48.31
34081;BME280;20358;50.272;19.026;2022-07-11T10:09:00;98472.59;;;17.00;52.70
34081;BME280;20358;50.272;19.026;2022-07-11T10:12:08;98491.13;;;16.32;57.24
34081;BME280;20358;50.272;19.026;2022-07-11T10:15:20;98503.47;;;15.13;66.41
34081;BME280;20358;50.272;19.026;2022-07-11T10:18:31;98512.50;;;13.94;71.15
34081;BME280;20358;50.272;19.026;2022-07-11T10:21:45;98502.94;;;13.26;73.53
34081;BME280;20358;50.272;19.026;2022-07-11T10:24:59;98531.88;;;12.83;74.92
34081;BME280;20358;50.272;19.026;2022-07-11T10:28:14;98504.63;;;12.56;75.29
34081;BME280;20358;50.272;19.026;2022-07-11T10:31:28;98494.00;;;12.44;75.51
34081;BME280;20358;50.272;19.026;2022-07-11T10:35:06;98483.69;;;12.41;76.09
34081;BME280;20358;50.272;19.026;2022-07-11T10:38:13;98476.09;;;12.50;76.71
34081;BME280;20358;50.272;19.026;2022-07-11T10:41:21;98477.78;;;12.65;75.99
34081;BME280;20358;50.272;19.026;2022-07-11T10:44:47;98467.28;;;12.94;76.37
34081;BME280;20358;50.272;19.026;2022-07-11T10:48:09;98456.72;;;13.22;74.95
34081;BME280;20358;50.272;19.026;2022-07-11T10:51:24;98438.75;;;13.55;75.87
34081;BME280;20358;50.272;19.026;2022-07-11T10:54:42;98451.28;;;13.91;74.28
34081;BME280;20358;50.272;19.026;2022-07-11T10:58:02;98447.34;;;14.10;74.38
34081;BME280;20358;50.272;19.026;2022-07-11T11:01:11;98439.66;;;14.33;74.67
34081;BME280;20358;50.272;19.026;2022-07-11T11:04:46;98443.16;;;14.46;72.62
34081;BME280;20358;50.272;19.026;2022-07-11T11:07:52;98439.25;;;14.51;69.43
34081;BME280;20358;50.272;19.026;2022-07-11T11:11:01;98464.03;;;14.61;66.49
34081;BME280;20358;50.272;19.026;2022-07-11T11:14:17;98449.97;;;14.86;68.73
34081;BME280;20358;50.272;19.026;2022-07-11T11:17:37;98450.25;;;15.19;67.24
34081;BME280;20358;50.272;19.026;2022-07-11T11:20:45;98448.94;;;15.38;65.14
34081;BME280;20358;50.272;19.026;2022-07-11T11:24:03;98445.28;;;15.51;64.20
34081;BME280;20358;50.272;19.026;2022-07-11T11:27:16;98452.59;;;15.82;63.71
34081;BME280;20358;50.272;19.026;2022-07-11T11:30:24;98454.28;;;16.07;62.63
34081;BME280;20358;50.272;19.026;2022-07-11T11:33:32;98448.59;;;16.35;62.51
34081;BME280;20358;50.272;19.026;2022-07-11T11:36:42;98460.28;;;16.55;61.25
34081;BME280;20358;50.272;19.026;2022-07-11T11:39:47;98465.72;;;16.65;60.30
34081;BME280;20358;50.272;19.026;2022-07-11T11:42:54;98467.38;;;16.66;61.01
34081;BME280;20358;50.272;19.026;2022-07-11T11:46:00;98476.78;;;16.58;60.32
34081;BME280;20358;50.272;19.026;2022-07-11T11:49:08;98475.91;;;16.36;60.20
34081;BME280;20358;50.272;19.026;2022-07-11T11:52:17;98491.06;;;16.10;61.59
34081;BME280;20358;50.272;19.026;2022-07-11T11:55:24;98500.28;;;15.81;62.50
34081;BME280;20358;50.272;19.026;2022-07-11T11:58:32;98511.84;;;15.44;63.11
34081;BME280;20358;50.272;19.026;2022-07-11T12:01:40;98534.72;;;15.07;66.81
34081;BME280;20358;50.272;19.026;2022-07-11T12:04:46;98526.38;;;14.50;68.96
34081;BME280;20358;50.272;19.026;2022-07-11T12:07:55;98516.63;;;13.98;71.48
34081;BME280;20358;50.272;19.026;2022-07-11T12:11:02;98497.56;;;13.68;73.53
34081;BME280;20358;50.272;19.026;2022-07-11T12:14:10;98492.75;;;13.48;74.79
34081;BME280;20358;50.272;19.026;2022-07-11T12:17:23;98482.78;;;13.39;75.97
34081;BME280;20358;50.272;19.026;2022-07-11T12:20:41;98482.78;;;13.39;76.51
34081;BME280;20358;50.272;19.026;2022-07-11T12:23:50;98461.91;;;13.50;76.89
34081;BME280;20358;50.272;19.026;2022-07-11T12:26:57;98461.38;;;13.84;77.49
34081;BME280;20358;50.272;19.026;2022-07-11T12:30:04;98467.38;;;14.13;76.21
34081;BME280;20358;50.272;19.026;2022-07-11T12:33:12;98456.75;;;14.40;75.02
34081;BME280;20358;50.272;19.026;2022-07-11T12:36:31;98484.91;;;14.64;71.46
34081;BME280;20358;50.272;19.026;2022-07-11T12:39:47;98495.03;;;14.58;69.96
34081;BME280;20358;50.272;19.026;2022-07-11T12:42:54;98496.31;;;14.52;70.02
34081;BME280;20358;50.272;19.026;2022-07-11T12:46:02;98494.81;;;14.48;71.08
34081;BME280;20358;50.272;19.026;2022-07-11T12:49:07;98498.84;;;14.54;70.63
34081;BME280;20358;50.272;19.026;2022-07-11T12:52:14;98490.81;;;14.55;70.34
34081;BME280;20358;50.272;19.026;2022-07-11T12:55:24;98484.47;;;14.58;70.12
34081;BME280;20358;50.272;19.026;2022-07-11T12:58:38;98484.19;;;14.62;69.59
34081;BME280;20358;50.272;19.026;2022-07-11T13:01:54;98479.84;;;14.74;68.36
34081;BME280;20358;50.272;19.026;2022-07-11T13:05:04;98473.50;;;14.89;68.21
34081;BME280;20358;50.272;19.026;2022-07-11T13:08:09;98477.72;;;15.04;66.32
34081;BME280;20358;50.272;19.026;2022-07-11T13:11:35;98474.72;;;15.21;67.05
34081;BME280;20358;50.272;19.026;2022-07-11T13:14:40;98463.19;;;15.35;66.64
34081;BME280;20358;50.272;19.026;2022-07-11T13:18:05;98466.56;;;15.61;64.96
34081;BME280;20358;50.272;19.026;2022-07-11T13:21:11;98477.47;;;15.80;63.14
34081;BME280;20358;50.272;19.026;2022-07-11T13:24:18;98492.94;;;15.97;61.48
34081;BME280;20358;50.272;19.026;2022-07-11T13:27:26;98494.53;;;16.11;60.46
34081;BME280;20358;50.272;19.026;2022-07-11T13:30:33;98496.44;;;16.32;58.81
34081;BME280;20358;50.272;19.026;2022-07-11T13:33:58;98479.53;;;16.57;57.59
34081;BME280;20358;50.272;19.026;2022-07-11T13:37:05;98489.56;;;16.76;58.34
34081;BME280;20358;50.272;19.026;2022-07-11T13:40:12;98501.81;;;16.88;56.83
34081;BME280;20358;50.272;19.026;2022-07-11T13:43:21;98517.63;;;17.11;57.68
34081;BME280;20358;50.272;19.026;2022-07-11T13:46:29;98523.50;;;17.26;56.30
34081;BME280;20358;50.272;19.026;2022-07-11T13:49:42;98510.66;;;17.33;55.05
34081;BME280;20358;50.272;19.026;2022-07-11T13:52:51;98514.72;;;17.37;56.63
34081;BME280;20358;50.272;19.026;2022-07-11T13:56:01;98507.09;;;17.43;55.90
34081;BME280;20358;50.272;19.026;2022-07-11T13:59:10;98509.75;;;17.54;55.96
34081;BME280;20358;50.272;19.026;2022-07-11T14:02:17;98504.44;;;17.54;56.24
34081;BME280;20358;50.272;19.026;2022-07-11T14:05:23;98502.31;;;17.48;56.34
34081;BME280;20358;50.272;19.026;2022-07-11T14:08:29;98509.56;;;17.35;56.55
34081;BME280;20358;50.272;19.026;2022-07-11T14:11:35;98515.09;;;17.32;57.41
34081;BME280;20358;50.272;19.026;2022-07-11T14:14:44;98520.63;;;17.29;57.50
34081;BME280;20358;50.272;19.026;2022-07-11T14:17:53;98516.31;;;17.17;58.97
34081;BME280;20358;50.272;19.026;2022-07-11T14:20:59;98526.38;;;17.01;59.24
34081;BME280;20358;50.272;19.026;2022-07-11T14:24:06;98529.97;;;16.78;59.57
34081;BME280;20358;50.272;19.026;2022-07-11T14:27:13;98582.94;;;16.54;62.81
34081;BME280;20358;50.272;19.026;2022-07-11T14:30:22;98575.97;;;15.82;67.79
34081;BME280;20358;50.272;19.026;2022-07-11T14:33:29;98539.56;;;15.13;70.71
34081;BME280;20358;50.272;19.026;2022-07-11T14:36:35;98533.44;;;14.87;72.63
34081;BME280;20358;50.272;19.026;2022-07-11T14:39:41;98531.13;;;14.83;72.71
34081;BME280;20358;50.272;19.026;2022-07-11T14:42:47;98528.03;;;14.76;73.11
34081;BME280;20358;50.272;19.026;2022-07-11T14:45:57;98534.50;;;14.72;73.47
34081;BME280;20358;50.272;19.026;2022-07-11T14:49:04;98521.00;;;14.64;73.13
34081;BME280;20358;50.272;19.026;2022-07-11T14:52:11;98515.09;;;14.73;73.69
34081;BME280;20358;50.272;19.026;2022-07-11T14:55:16;98515.50;;;14.92;73.89
34081;BME280;20358;50.272;19.026;2022-07-11T14:58:23;98506.97;;;15.14;73.82
34081;BME280;20358;50.272;19.026;2022-07-11T15:01:31;98488.22;;;15.29;73.01
34081;BME280;20358;50.272;19.026;2022-07-11T15:04:38;98488.13;;;15.55;73.09
34081;BME280;20358;50.272;19.026;2022-07-11T15:07:48;98486.50;;;15.88;72.47
34081;BME280;20358;50.272;19.026;2022-07-11T15:11:10;98490.97;;;16.69;71.28
34081;BME280;20358;50.272;19.026;2022-07-11T15:14:32;98472.25;;;17.70;69.99
34081;BME280;20358;50.272;19.026;2022-07-11T15:17:41;98480.75;;;18.58;65.06
34081;BME280;20358;50.272;19.026;2022-07-11T15:20:48;98486.97;;;18.47;62.02
34081;BME280;20358;50.272;19.026;2022-07-11T15:23:55;98487.63;;;18.19;61.75
34081;BME280;20358;50.272;19.026;2022-07-11T15:27:02;98482.25;;;18.71;63.19
34081;BME280;20358;50.272;19.026;2022-07-11T15:30:10;98477.28;;;19.48;59.47
34081;BME280;20358;50.272;19.026;2022-07-11T15:33:21;98482.81;;;20.13;60.27
34081;BME280;20358;50.272;19.026;2022-07-11T15:36:28;98481.81;;;20.72;56.06
34081;BME280;20358;50.272;19.026;2022-07-11T15:39:33;98506.22;;;20.48;52.36
34081;BME280;20358;50.272;19.026;2022-07-11T15:42:40;98493.03;;;19.70;54.80
34081;BME280;20358;50.272;19.026;2022-07-11T15:45:45;98497.59;;;19.19;56.08
34081;BME280;20358;50.272;19.026;2022-07-11T15:48:55;98512.41;;;19.12;56.41
34081;BME280;20358;50.272;19.026;2022-07-11T15:52:02;98502.81;;;18.99;58.26
34081;BME280;20358;50.272;19.026;2022-07-11T15:55:09;98501.53;;;19.24;56.94
34081;BME280;20358;50.272;19.026;2022-07-11T15:58:15;98495.75;;;19.49;55.26
34081;BME280;20358;50.272;19.026;2022-07-11T16:01:23;98503.63;;;19.21;55.59
34081;BME280;20358;50.272;19.026;2022-07-11T16:04:38;98507.69;;;18.94;56.52
34081;BME280;20358;50.272;19.026;2022-07-11T16:07:51;98496.78;;;18.67;56.83
34081;BME280;20358;50.272;19.026;2022-07-11T16:10:57;98499.03;;;18.51;57.82
34081;BME280;20358;50.272;19.026;2022-07-11T16:14:05;98495.22;;;18.44;58.21
34081;BME280;20358;50.272;19.026;2022-07-11T16:17:10;98494.28;;;18.34;57.77
34081;BME280;20358;50.272;19.026;2022-07-11T16:20:19;98491.00;;;18.83;57.77
34081;BME280;20358;50.272;19.026;2022-07-11T16:23:25;98476.44;;;19.57;56.63
34081;BME280;20358;50.272;19.026;2022-07-11T16:26:31;98471.75;;;20.28;56.99